Time;durP1;ratioP1;P1;durP2;ratioP2;P2;SDS_P1;SDS_P2;PMS_P1;PMS_P2;Temp;Humidity;BMP_temperature;BMP_pressure;BME280_temperature;BME280_humidity;BME280_pressure;Samples;Min_cycle;Max_cycle;Signal;HPM_P1;HPM_P2
2021/08/26 00:07:53;;;;;;;6.43;3.78;;;;;;;;;;5075338;28;20103;-83
2021/08/26 00:10:22;;;;;;;8.07;4.18;;;;;;;;;;5073497;28;20429;-83
2021/08/26 00:12:47;;;;;;;9.65;4.30;;;;;;;;;;5072461;28;20067;-83
2021/08/26 00:15:13;;;;;;;10.07;4.85;;;;;;;;;;5071023;28;20789;-83
2021/08/26 00:17:39;;;;;;;9.32;3.53;;;;;;;;;;5065961;28;20108;-83
2021/08/26 00:20:05;;;;;;;10.10;4.00;;;;;;;;;;5073479;28;20388;-83
2021/08/26 00:22:31;;;;;;;10.38;3.72;;;;;;;;;;5064815;28;20033;-83
2021/08/26 00:24:56;;;;;;;8.90;4.10;;;;;;;;;;5075001;28;20020;-83
2021/08/26 00:27:23;;;;;;;9.77;3.80;;;;;;;;;;5066066;28;20017;-83
2021/08/26 00:29:48;;;;;;;9.38;4.00;;;;;;;;;;5068247;28;20020;-83
2021/08/26 00:32:13;;;;;;;7.80;3.60;;;;;;;;;;5073720;28;20028;-83
2021/08/26 00:34:39;;;;;;;9.43;3.90;;;;;;;;;;5073700;28;20020;-84
2021/08/26 00:37:04;;;;;;;8.82;3.63;;;;;;;;;;5064292;28;20077;-83
2021/08/26 00:39:29;;;;;;;9.40;3.50;;;;;;;;;;5073499;28;20016;-82
2021/08/26 00:41:54;;;;;;;8.15;4.10;;;;;;;;;;5073658;28;20122;-83
2021/08/26 00:44:19;;;;;;;10.35;3.50;;;;;;;;;;5073569;28;20472;-83
2021/08/26 00:46:46;;;;;;;9.77;4.00;;;;;;;;;;5061263;28;20020;-83
2021/08/26 00:49:12;;;;;;;8.15;3.83;;;;;;;;;;5063048;28;20024;-83
2021/08/26 00:51:37;;;;;;;9.27;4.05;;;;;;;;;;5069433;28;20032;-83
2021/08/26 00:54:03;;;;;;;7.90;3.65;;;;;;;;;;5073202;28;20040;-83
2021/08/26 00:56:28;;;;;;;11.00;4.10;;;;;;;;;;5060953;28;20070;-83
2021/08/26 00:58:53;;;;;;;6.80;3.65;;;;;;;;;;5073419;28;20398;-83
2021/08/26 01:01:27;;;;;;;7.97;3.45;;;;;;;;;;5073416;28;20430;-83
2021/08/26 01:04:00;;;;;;;7.13;3.47;;;;;;;;;;5073046;28;20016;-83
2021/08/26 01:06:39;;;;;;;7.20;3.90;;;;;;;;;;5069370;28;20040;-83
2021/08/26 01:09:07;;;;;;;7.78;3.72;;;;;;;;;;5066134;28;20025;-83
2021/08/26 01:11:34;;;;;;;10.93;4.28;;;;;;;;;;5073200;28;20529;-83
2021/08/26 01:13:59;;;;;;;7.80;3.88;;;;;;;;;;5058920;28;20021;-83
2021/08/26 01:16:25;;;;;;;7.63;3.80;;;;;;;;;;5068341;28;20017;-83
2021/08/26 01:18:50;;;;;;;7.57;3.65;;;;;;;;;;5070487;28;20111;-83
2021/08/26 01:21:19;;;;;;;6.43;3.35;;;;;;;;;;5060978;28;20016;-83
2021/08/26 01:23:50;;;;;;;9.52;4.10;;;;;;;;;;5067791;28;20116;-83
2021/08/26 01:26:26;;;;;;;9.25;3.72;;;;;;;;;;5068167;28;20024;-83
2021/08/26 01:28:53;;;;;;;7.20;3.58;;;;;;;;;;5047148;28;20021;-83
2021/08/26 01:31:19;;;;;;;7.68;3.30;;;;;;;;;;5068769;28;20020;-83
2021/08/26 01:33:46;;;;;;;8.45;3.63;;;;;;;;;;5053954;28;20598;-83
2021/08/26 01:36:11;;;;;;;8.25;3.40;;;;;;;;;;5065061;28;20468;-83
2021/08/26 01:38:36;;;;;;;5.70;3.08;;;;;;;;;;5056282;28;20082;-83
2021/08/26 01:41:01;;;;;;;8.57;3.33;;;;;;;;;;5065205;28;20029;-83
2021/08/26 01:43:28;;;;;;;6.40;3.45;;;;;;;;;;5060191;28;20037;-83
2021/08/26 01:45:53;;;;;;;10.30;3.28;;;;;;;;;;5072584;28;20021;-83
2021/08/26 01:48:19;;;;;;;5.80;3.38;;;;;;;;;;5068712;28;20035;-82
2021/08/26 01:50:48;;;;;;;8.48;3.72;;;;;;;;;;5064947;28;20475;-83
2021/08/26 01:53:14;;;;;;;7.55;3.25;;;;;;;;;;5053569;28;20693;-83
2021/08/26 01:55:40;;;;;;;7.20;3.22;;;;;;;;;;5052426;28;20021;-83
2021/08/26 01:58:05;;;;;;;7.03;3.22;;;;;;;;;;5052064;28;20028;-83
2021/08/26 02:00:30;;;;;;;11.10;3.53;;;;;;;;;;5051967;28;20025;-83
2021/08/26 02:02:55;;;;;;;7.40;3.72;;;;;;;;;;5052206;28;20033;-83
2021/08/26 02:05:21;;;;;;;7.07;3.55;;;;;;;;;;5053568;28;20060;-83
2021/08/26 02:07:47;;;;;;;6.15;3.60;;;;;;;;;;5051887;28;20499;-83
2021/08/26 02:10:12;;;;;;;7.47;3.30;;;;;;;;;;5051841;28;20066;-83
2021/08/26 02:12:37;;;;;;;8.73;3.08;;;;;;;;;;5051302;28;20029;-83
2021/08/26 02:15:03;;;;;;;9.25;3.67;;;;;;;;;;5051875;28;20016;-83
2021/08/26 02:17:28;;;;;;;5.50;3.63;;;;;;;;;;5052529;28;20032;-83
2021/08/26 02:19:53;;;;;;;5.15;3.03;;;;;;;;;;5051728;28;20399;-83
2021/08/26 02:22:18;;;;;;;9.20;3.88;;;;;;;;;;5053236;28;20098;-83
2021/08/26 02:24:44;;;;;;;5.05;3.17;;;;;;;;;;5051608;28;20015;-83
2021/08/26 02:27:09;;;;;;;6.15;3.13;;;;;;;;;;5051565;28;20456;-82
2021/08/26 02:29:34;;;;;;;7.07;3.45;;;;;;;;;;5051460;28;20017;-83
2021/08/26 02:31:59;;;;;;;8.82;4.00;;;;;;;;;;5051449;28;20009;-83
2021/08/26 02:34:24;;;;;;;6.28;3.20;;;;;;;;;;5051572;28;20025;-83
2021/08/26 02:36:50;;;;;;;6.72;3.72;;;;;;;;;;5051445;28;20059;-84
2021/08/26 02:39:15;;;;;;;5.18;2.63;;;;;;;;;;5051134;28;20048;-83
2021/08/26 02:41:40;;;;;;;6.13;2.60;;;;;;;;;;5051379;28;20017;-83
2021/08/26 02:44:05;;;;;;;5.28;2.55;;;;;;;;;;5051280;28;20372;-83
2021/08/26 02:46:31;;;;;;;5.35;2.58;;;;;;;;;;5051454;28;20082;-83
2021/08/26 02:48:56;;;;;;;5.50;2.25;;;;;;;;;;5051365;28;20151;-83
2021/08/26 02:51:21;;;;;;;4.82;2.47;;;;;;;;;;5052721;28;20150;-83
2021/08/26 02:53:46;;;;;;;6.35;2.33;;;;;;;;;;5051170;28;20028;-83
2021/08/26 02:56:12;;;;;;;3.65;2.30;;;;;;;;;;5052518;28;20029;-83
2021/08/26 02:58:37;;;;;;;3.95;2.20;;;;;;;;;;5051296;28;20373;-83
2021/08/26 03:01:02;;;;;;;8.30;2.53;;;;;;;;;;5051225;28;20020;-83
2021/08/26 03:03:27;;;;;;;3.67;2.30;;;;;;;;;;5052568;28;20368;-83
2021/08/26 03:05:52;;;;;;;4.32;2.53;;;;;;;;;;5051209;28;20417;-83
2021/08/26 03:08:18;;;;;;;4.10;2.60;;;;;;;;;;5050446;28;20025;-83
2021/08/26 03:10:43;;;;;;;4.65;2.28;;;;;;;;;;5051082;28;20013;-82
2021/08/26 03:13:08;;;;;;;3.70;2.30;;;;;;;;;;5051016;28;20017;-82
2021/08/26 03:15:33;;;;;;;4.50;2.55;;;;;;;;;;5051233;28;20134;-83
2021/08/26 03:17:59;;;;;;;6.20;2.50;;;;;;;;;;5052095;28;20429;-82
2021/08/26 03:20:24;;;;;;;3.90;2.20;;;;;;;;;;5052225;28;20052;-83
2021/08/26 03:22:49;;;;;;;3.72;2.10;;;;;;;;;;5051034;28;20495;-83
2021/08/26 03:25:15;;;;;;;5.88;2.60;;;;;;;;;;5050579;28;20046;-83
2021/08/26 03:27:40;;;;;;;5.40;2.90;;;;;;;;;;5050853;28;20028;-83
2021/08/26 03:30:07;;;;;;;3.75;2.70;;;;;;;;;;5051326;28;20009;-83
2021/08/26 03:32:33;;;;;;;7.30;2.90;;;;;;;;;;5050790;28;20013;-82
2021/08/26 03:34:58;;;;;;;8.13;2.60;;;;;;;;;;5050592;28;20354;-83
2021/08/26 03:37:23;;;;;;;4.45;2.50;;;;;;;;;;5051093;28;20020;-83
2021/08/26 03:39:48;;;;;;;8.23;2.33;;;;;;;;;;5052028;28;20051;-82
2021/08/26 03:42:13;;;;;;;4.82;2.40;;;;;;;;;;5051178;28;20465;-83
2021/08/26 03:44:39;;;;;;;4.22;2.22;;;;;;;;;;5050603;28;20032;-83
2021/08/26 03:47:04;;;;;;;5.32;2.92;;;;;;;;;;5050426;28;20021;-83
2021/08/26 03:49:29;;;;;;;4.20;2.45;;;;;;;;;;5050377;28;20029;-83
2021/08/26 03:51:57;;;;;;;5.47;2.83;;;;;;;;;;5084038;28;20489;-82
2021/08/26 03:54:22;;;;;;;5.07;2.85;;;;;;;;;;5050318;28;20430;-82
2021/08/26 03:56:48;;;;;;;5.40;2.55;;;;;;;;;;5054397;28;20103;-83
2021/08/26 03:59:14;;;;;;;5.38;2.35;;;;;;;;;;5054180;28;20036;-83
2021/08/26 04:01:39;;;;;;;6.35;2.25;;;;;;;;;;5053917;28;20025;-83
2021/08/26 04:04:04;;;;;;;4.55;2.20;;;;;;;;;;5054108;28;20024;-83
2021/08/26 04:06:29;;;;;;;7.05;2.50;;;;;;;;;;5054170;28;20377;-83
2021/08/26 04:08:54;;;;;;;4.78;2.40;;;;;;;;;;5053567;28;20049;-83
2021/08/26 04:11:20;;;;;;;5.60;2.10;;;;;;;;;;5053844;28;20036;-83
2021/08/26 04:13:45;;;;;;;6.10;2.47;;;;;;;;;;5053830;28;20372;-83
2021/08/26 04:16:10;;;;;;;8.00;2.53;;;;;;;;;;5055252;28;20475;-83
2021/08/26 04:18:35;;;;;;;8.80;2.33;;;;;;;;;;5054014;28;20040;-82
2021/08/26 04:21:01;;;;;;;7.10;2.17;;;;;;;;;;5054119;28;20078;-82
2021/08/26 04:23:26;;;;;;;10.10;2.30;;;;;;;;;;5053740;28;20388;-82
2021/08/26 04:25:51;;;;;;;8.15;2.22;;;;;;;;;;5053530;28;20028;-83
2021/08/26 04:28:16;;;;;;;4.03;1.98;;;;;;;;;;5053531;28;20071;-83
2021/08/26 04:30:41;;;;;;;6.97;2.22;;;;;;;;;;5053550;28;20028;-83
2021/08/26 04:33:07;;;;;;;10.85;2.45;;;;;;;;;;5053622;28;20127;-83
2021/08/26 04:35:32;;;;;;;4.80;1.63;;;;;;;;;;5054811;28;20025;-82
2021/08/26 04:37:57;;;;;;;6.30;2.10;;;;;;;;;;5054690;28;20021;-82
2021/08/26 04:40:22;;;;;;;9.55;2.05;;;;;;;;;;5053705;28;20396;-82
2021/08/26 04:42:48;;;;;;;7.30;2.08;;;;;;;;;;5053425;28;20021;-82
2021/08/26 04:45:13;;;;;;;4.97;1.98;;;;;;;;;;5053267;28;20794;-82
2021/08/26 04:47:38;;;;;;;8.00;1.90;;;;;;;;;;5053423;28;20056;-83
2021/08/26 04:50:04;;;;;;;6.30;2.15;;;;;;;;;;5053359;28;20013;-82
2021/08/26 04:52:29;;;;;;;8.75;1.98;;;;;;;;;;5053478;28;20104;-83
2021/08/26 04:54:54;;;;;;;5.53;2.35;;;;;;;;;;5053014;28;20021;-82
2021/08/26 04:57:19;;;;;;;5.53;1.88;;;;;;;;;;5054317;28;20063;-83
2021/08/26 04:59:45;;;;;;;5.70;1.92;;;;;;;;;;5053310;28;20098;-82
2021/08/26 05:02:10;;;;;;;8.80;2.20;;;;;;;;;;5052560;28;20020;-83
2021/08/26 05:04:35;;;;;;;5.90;2.05;;;;;;;;;;5052977;28;20016;-83
2021/08/26 05:07:00;;;;;;;6.47;1.80;;;;;;;;;;5052866;28;20021;-82
2021/08/26 05:09:26;;;;;;;8.05;2.10;;;;;;;;;;5052778;28;20017;-83
2021/08/26 05:11:53;;;;;;;9.93;2.47;;;;;;;;;;5052964;28;20082;-83
2021/08/26 05:14:18;;;;;;;10.27;2.22;;;;;;;;;;5052901;28;20138;-83
2021/08/26 05:16:44;;;;;;;8.70;2.30;;;;;;;;;;5052499;28;20465;-84
2021/08/26 05:19:09;;;;;;;19.08;2.92;;;;;;;;;;5052498;28;20098;-82
2021/08/26 05:21:34;;;;;;;10.43;2.42;;;;;;;;;;5052256;28;20021;-83
2021/08/26 05:23:59;;;;;;;7.40;2.33;;;;;;;;;;5051430;28;20017;-82
2021/08/26 05:26:24;;;;;;;8.20;2.35;;;;;;;;;;5053651;28;20029;-83
2021/08/26 05:28:50;;;;;;;9.18;2.33;;;;;;;;;;5051663;28;20078;-83
2021/08/26 05:31:16;;;;;;;11.23;2.58;;;;;;;;;;5052528;28;20473;-83
2021/08/26 05:33:41;;;;;;;8.98;1.88;;;;;;;;;;5050403;28;20358;-82
2021/08/26 05:36:06;;;;;;;6.80;2.30;;;;;;;;;;5051543;28;20051;-83
2021/08/26 05:38:31;;;;;;;13.30;2.60;;;;;;;;;;5052943;28;20063;-82
2021/08/26 05:40:57;;;;;;;11.75;2.70;;;;;;;;;;5050817;28;20033;-83
2021/08/26 05:43:22;;;;;;;8.00;2.33;;;;;;;;;;5052285;28;20392;-83
2021/08/26 05:45:48;;;;;;;6.47;1.88;;;;;;;;;;5051560;28;20017;-83
2021/08/26 05:48:13;;;;;;;5.38;1.85;;;;;;;;;;5051123;28;20314;-82
2021/08/26 05:50:39;;;;;;;11.48;2.40;;;;;;;;;;5051026;28;20108;-83
2021/08/26 05:53:04;;;;;;;17.98;3.15;;;;;;;;;;5050826;28;20021;-83
2021/08/26 05:55:30;;;;;;;12.68;2.88;;;;;;;;;;5051398;28;20028;-83
2021/08/26 05:57:55;;;;;;;11.43;2.88;;;;;;;;;;5051299;28;20024;-83
2021/08/26 06:00:20;;;;;;;8.25;2.30;;;;;;;;;;5052490;28;20528;-82
2021/08/26 06:02:45;;;;;;;6.38;2.28;;;;;;;;;;5051096;28;20017;-82
2021/08/26 06:05:11;;;;;;;11.73;2.40;;;;;;;;;;5051149;28;20049;-82
2021/08/26 06:07:38;;;;;;;12.27;3.38;;;;;;;;;;5053623;28;20028;-82
2021/08/26 06:10:03;;;;;;;16.13;2.50;;;;;;;;;;5062805;28;20017;-82
2021/08/26 06:12:29;;;;;;;20.02;2.72;;;;;;;;;;5051793;28;20094;-83
2021/08/26 06:14:54;;;;;;;13.13;2.90;;;;;;;;;;5051840;28;20391;-82
2021/08/26 06:17:20;;;;;;;10.25;2.45;;;;;;;;;;5050166;28;20464;-83
2021/08/26 06:19:45;;;;;;;12.73;2.78;;;;;;;;;;5051143;28;20025;-82
2021/08/26 06:22:10;;;;;;;10.48;3.13;;;;;;;;;;5051813;28;20028;-82
2021/08/26 06:24:35;;;;;;;8.73;2.70;;;;;;;;;;5050655;28;20487;-83
2021/08/26 06:27:02;;;;;;;10.98;2.60;;;;;;;;;;5051059;28;20036;-83
2021/08/26 06:29:27;;;;;;;18.75;2.30;;;;;;;;;;5046522;28;20025;-82
2021/08/26 06:31:53;;;;;;;17.17;3.08;;;;;;;;;;5050868;28;20024;-82
2021/08/26 06:34:18;;;;;;;10.25;2.58;;;;;;;;;;5050405;28;20021;-82
2021/08/26 06:36:43;;;;;;;10.50;2.33;;;;;;;;;;5049878;28;20381;-82
2021/08/26 06:39:08;;;;;;;9.48;3.22;;;;;;;;;;5051614;28;20017;-83
2021/08/26 06:41:34;;;;;;;15.30;2.92;;;;;;;;;;5050992;28;20032;-83
2021/08/26 06:43:59;;;;;;;12.65;3.08;;;;;;;;;;5050412;28;20020;-83
2021/08/26 06:46:24;;;;;;;13.93;2.50;;;;;;;;;;5051163;28;20075;-83
2021/08/26 06:48:51;;;;;;;7.82;2.92;;;;;;;;;;5049204;28;20064;-82
2021/08/26 06:51:16;;;;;;;10.88;2.67;;;;;;;;;;5050132;28;20017;-82
2021/08/26 06:53:41;;;;;;;10.52;2.70;;;;;;;;;;5049851;28;20024;-83
2021/08/26 06:56:06;;;;;;;13.88;3.15;;;;;;;;;;5081272;28;20044;-83
2021/08/26 06:58:32;;;;;;;10.82;2.38;;;;;;;;;;5047797;28;20103;-83
2021/08/26 07:00:57;;;;;;;11.45;2.60;;;;;;;;;;5046288;28;20021;-83
2021/08/26 07:03:22;;;;;;;8.07;2.65;;;;;;;;;;5047328;28;20021;-83
2021/08/26 07:05:47;;;;;;;10.52;2.72;;;;;;;;;;5048819;28;20086;-83
2021/08/26 07:08:13;;;;;;;13.48;2.90;;;;;;;;;;5048968;28;20681;-82
2021/08/26 07:10:38;;;;;;;11.57;3.22;;;;;;;;;;5050113;28;20025;-83
2021/08/26 07:13:03;;;;;;;12.88;2.83;;;;;;;;;;5049655;28;20013;-83
2021/08/26 07:15:29;;;;;;;14.60;3.00;;;;;;;;;;5051795;28;20167;-82
2021/08/26 07:17:54;;;;;;;9.88;2.58;;;;;;;;;;5049664;28;20017;-83
2021/08/26 07:20:19;;;;;;;9.07;2.83;;;;;;;;;;5051155;28;20020;-83
2021/08/26 07:22:45;;;;;;;10.63;1.95;;;;;;;;;;5058074;28;20009;-83
2021/08/26 07:25:10;;;;;;;11.85;2.80;;;;;;;;;;5050090;28;20032;-83
2021/08/26 07:27:36;;;;;;;12.68;2.83;;;;;;;;;;5049483;28;20036;-83
2021/08/26 07:30:01;;;;;;;15.63;2.42;;;;;;;;;;5050261;28;20024;-83
2021/08/26 07:32:26;;;;;;;11.95;2.83;;;;;;;;;;5054154;28;20124;-83
2021/08/26 07:34:51;;;;;;;11.05;2.40;;;;;;;;;;5053200;28;20150;-82
2021/08/26 07:37:16;;;;;;;8.00;2.38;;;;;;;;;;5055375;28;20025;-83
2021/08/26 07:39:42;;;;;;;9.25;2.33;;;;;;;;;;5054357;28;20525;-83
2021/08/26 07:42:07;;;;;;;13.65;2.30;;;;;;;;;;5053534;28;20031;-83
2021/08/26 07:44:32;;;;;;;16.88;2.72;;;;;;;;;;5053583;28;20017;-83
2021/08/26 07:46:58;;;;;;;11.13;2.20;;;;;;;;;;5053911;28;20025;-83
2021/08/26 07:49:23;;;;;;;16.35;3.38;;;;;;;;;;5053849;28;20059;-82
2021/08/26 07:51:48;;;;;;;13.20;2.80;;;;;;;;;;5054022;28;20024;-82
2021/08/26 07:54:13;;;;;;;19.15;2.88;;;;;;;;;;5054629;28;20111;-83
2021/08/26 07:56:39;;;;;;;8.38;2.13;;;;;;;;;;5053183;28;20499;-83
2021/08/26 07:59:04;;;;;;;11.00;2.97;;;;;;;;;;5048558;28;20028;-83
2021/08/26 08:01:29;;;;;;;13.02;2.30;;;;;;;;;;5052679;28;20052;-83
2021/08/26 08:03:54;;;;;;;11.02;2.20;;;;;;;;;;5052827;28;20021;-83
2021/08/26 08:06:19;;;;;;;16.17;2.50;;;;;;;;;;5053697;28;20021;-83
2021/08/26 08:08:45;;;;;;;12.52;2.47;;;;;;;;;;5052386;28;20028;-84
2021/08/26 08:11:10;;;;;;;13.13;2.85;;;;;;;;;;5053980;28;20025;-84
2021/08/26 08:13:36;;;;;;;17.52;2.60;;;;;;;;;;5053681;28;20020;-83
2021/08/26 08:16:03;;;;;;;11.95;2.47;;;;;;;;;;5050568;28;20063;-85
2021/08/26 08:18:28;;;;;;;12.32;2.92;;;;;;;;;;5053768;28;20486;-85
2021/08/26 08:20:54;;;;;;;9.23;2.25;;;;;;;;;;5054689;28;20040;-85
2021/08/26 08:23:19;;;;;;;6.70;2.00;;;;;;;;;;5053937;28;20024;-84
2021/08/26 08:25:44;;;;;;;10.00;2.33;;;;;;;;;;5054080;28;20024;-84
2021/08/26 08:28:14;;;;;;;8.95;2.10;;;;;;;;;;5053145;28;20391;-84
2021/08/26 08:30:39;;;;;;;11.43;1.55;;;;;;;;;;5053345;28;20066;-84
2021/08/26 08:33:04;;;;;;;12.55;2.83;;;;;;;;;;5053224;28;20009;-84
2021/08/26 08:35:30;;;;;;;9.57;2.42;;;;;;;;;;5052990;28;20631;-84
2021/08/26 08:37:55;;;;;;;10.85;2.10;;;;;;;;;;5052267;28;20067;-84
2021/08/26 08:40:20;;;;;;;8.98;1.85;;;;;;;;;;5053335;28;20025;-84
2021/08/26 08:42:45;;;;;;;11.57;2.15;;;;;;;;;;5052548;28;20028;-84
2021/08/26 08:45:11;;;;;;;5.68;1.65;;;;;;;;;;5053442;28;20027;-84
2021/08/26 08:47:36;;;;;;;10.10;1.75;;;;;;;;;;5052724;28;20025;-83
2021/08/26 08:50:03;;;;;;;7.10;1.77;;;;;;;;;;5054286;28;20021;-82
2021/08/26 08:52:28;;;;;;;14.60;2.38;;;;;;;;;;5052932;28;20012;-84
2021/08/26 08:54:53;;;;;;;11.23;1.67;;;;;;;;;;5052549;28;20484;-82
2021/08/26 08:57:22;;;;;;;11.63;1.52;;;;;;;;;;5054179;28;20021;-83
2021/08/26 08:59:47;;;;;;;3.97;1.40;;;;;;;;;;5084022;28;20025;-83
2021/08/26 09:02:12;;;;;;;11.80;1.50;;;;;;;;;;5049203;28;20032;-83
2021/08/26 09:04:54;;;;;;;5.88;1.45;;;;;;;;;;5051993;28;20484;-82
2021/08/26 09:07:24;;;;;;;10.60;2.05;;;;;;;;;;5049670;28;20388;-87
2021/08/26 09:09:52;;;;;;;11.18;1.98;;;;;;;;;;5050884;28;20021;-86
2021/08/26 09:12:18;;;;;;;6.18;1.23;;;;;;;;;;5051952;28;20028;-86
2021/08/26 09:14:43;;;;;;;6.78;1.52;;;;;;;;;;5053452;28;20479;-84
2021/08/26 09:17:16;;;;;;;8.50;1.45;;;;;;;;;;5051668;28;20020;-84
2021/08/26 09:19:43;;;;;;;9.75;1.30;;;;;;;;;;5052508;28;20044;-85
2021/08/26 09:22:08;;;;;;;12.10;2.38;;;;;;;;;;5052589;28;20032;-85
2021/08/26 09:24:44;;;;;;;9.45;1.42;;;;;;;;;;5051786;28;20025;-85
2021/08/26 09:27:10;;;;;;;4.30;1.20;;;;;;;;;;5053468;28;20091;-85
2021/08/26 09:29:55;;;;;;;5.65;1.27;;;;;;;;;;5051972;28;20033;-85
2021/08/26 09:32:20;;;;;;;8.88;1.20;;;;;;;;;;5052023;28;20025;-85
2021/08/26 09:34:45;;;;;;;8.38;1.50;;;;;;;;;;5052177;28;20480;-85
2021/08/26 09:37:13;;;;;;;4.18;1.13;;;;;;;;;;5052666;28;20529;-85
2021/08/26 09:39:38;;;;;;;9.40;1.10;;;;;;;;;;5052353;28;20021;-84
2021/08/26 09:42:04;;;;;;;6.55;1.20;;;;;;;;;;5052374;28;20107;-85
2021/08/26 09:44:36;;;;;;;5.10;1.20;;;;;;;;;;5052080;28;20146;-85
2021/08/26 09:47:03;;;;;;;7.60;1.40;;;;;;;;;;5053663;28;20399;-85
2021/08/26 09:49:29;;;;;;;6.90;1.23;;;;;;;;;;5051493;28;20048;-86
2021/08/26 09:52:03;;;;;;;5.22;1.45;;;;;;;;;;5052196;28;20392;-85
2021/08/26 09:54:29;;;;;;;5.72;1.10;;;;;;;;;;5051190;28;20043;-85
2021/08/26 09:56:54;;;;;;;5.05;1.27;;;;;;;;;;5052007;28;20055;-84
2021/08/26 09:59:19;;;;;;;7.07;1.15;;;;;;;;;;5051716;28;20020;-85
2021/08/26 10:01:45;;;;;;;12.88;1.67;;;;;;;;;;5051943;28;20134;-85
2021/08/26 10:04:26;;;;;;;8.52;1.33;;;;;;;;;;5052135;28;20078;-85
2021/08/26 10:06:52;;;;;;;6.03;1.48;;;;;;;;;;5048357;28;20021;-85
2021/08/26 10:09:17;;;;;;;7.32;1.70;;;;;;;;;;5049710;28;20043;-85
2021/08/26 10:11:43;;;;;;;4.15;1.60;;;;;;;;;;5051073;28;20013;-85
2021/08/26 10:14:09;;;;;;;6.57;1.30;;;;;;;;;;5051303;28;20143;-84
2021/08/26 10:16:35;;;;;;;8.57;1.30;;;;;;;;;;5051003;28;20493;-85
2021/08/26 10:19:01;;;;;;;5.60;1.17;;;;;;;;;;5051041;28;20107;-85
2021/08/26 10:21:27;;;;;;;11.98;1.58;;;;;;;;;;5051480;28;20025;-87
2021/08/26 10:23:52;;;;;;;3.03;1.10;;;;;;;;;;5052856;28;20043;-87
2021/08/26 10:26:18;;;;;;;5.45;1.38;;;;;;;;;;5051850;28;20025;-88
2021/08/26 10:28:44;;;;;;;9.15;1.20;;;;;;;;;;5052016;28;20021;-87
2021/08/26 10:31:22;;;;;;;6.18;1.40;;;;;;;;;;5050430;28;20492;-86
2021/08/26 10:33:47;;;;;;;5.50;1.08;;;;;;;;;;5051248;28;20500;-84
2021/08/26 10:36:15;;;;;;;11.93;2.95;;;;;;;;;;5050330;28;20025;-84
2021/08/26 10:38:40;;;;;;;4.45;1.13;;;;;;;;;;5050845;28;20468;-84
2021/08/26 10:41:18;;;;;;;10.23;1.45;;;;;;;;;;5050613;28;20024;-84
2021/08/26 10:43:43;;;;;;;5.25;1.35;;;;;;;;;;5052397;28;20464;-84
2021/08/26 10:46:10;;;;;;;8.07;1.27;;;;;;;;;;5050857;28;20017;-84
2021/08/26 10:48:35;;;;;;;4.97;1.00;;;;;;;;;;5051650;28;20029;-84
2021/08/26 10:51:17;;;;;;;7.45;1.27;;;;;;;;;;5050525;28;20476;-84
2021/08/26 10:53:46;;;;;;;4.53;1.17;;;;;;;;;;5055137;28;20587;-84
2021/08/26 10:56:33;;;;;;;5.07;0.90;;;;;;;;;;5051930;28;20028;-84
2021/08/26 10:59:00;;;;;;;6.32;1.30;;;;;;;;;;5049017;28;20021;-84
2021/08/26 11:01:28;;;;;;;8.15;1.92;;;;;;;;;;5050602;28;20025;-84
2021/08/26 11:03:59;;;;;;;7.05;0.85;;;;;;;;;;5049617;28;20013;-84
2021/08/26 11:06:24;;;;;;;5.82;1.10;;;;;;;;;;5055396;28;20408;-84
2021/08/26 11:08:53;;;;;;;7.00;1.15;;;;;;;;;;5054290;28;20013;-84
2021/08/26 11:11:22;;;;;;;4.20;0.80;;;;;;;;;;5052668;28;20031;-84
2021/08/26 11:13:47;;;;;;;3.05;1.00;;;;;;;;;;5052494;28;20652;-84
2021/08/26 11:16:24;;;;;;;6.63;1.20;;;;;;;;;;5049442;28;20100;-84
2021/08/26 11:18:50;;;;;;;13.60;2.10;;;;;;;;;;5067489;28;20075;-84
2021/08/26 11:21:15;;;;;;;8.65;1.15;;;;;;;;;;5055267;28;20468;-84
2021/08/26 11:23:45;;;;;;;4.78;0.80;;;;;;;;;;5055080;28;20021;-84
2021/08/26 11:26:29;;;;;;;2.92;0.90;;;;;;;;;;5053973;28;20104;-84
2021/08/26 11:28:54;;;;;;;3.75;0.90;;;;;;;;;;5053781;28;20383;-84
2021/08/26 11:31:20;;;;;;;5.93;1.08;;;;;;;;;;5051688;28;20017;-83
2021/08/26 11:33:45;;;;;;;4.95;1.15;;;;;;;;;;5052611;28;20100;-83
2021/08/26 11:36:15;;;;;;;6.30;1.10;;;;;;;;;;5051179;28;20021;-83
2021/08/26 11:38:47;;;;;;;5.63;1.10;;;;;;;;;;5052688;28;20013;-84
2021/08/26 11:41:12;;;;;;;5.07;1.08;;;;;;;;;;5049433;28;20021;-84
2021/08/26 11:43:44;;;;;;;2.88;1.00;;;;;;;;;;5052930;28;20482;-83
2021/08/26 11:46:13;;;;;;;4.22;1.15;;;;;;;;;;5050516;28;20071;-84
2021/08/26 11:48:49;;;;;;;6.55;1.10;;;;;;;;;;5053684;28;20029;-84
2021/08/26 11:51:22;;;;;;;7.75;1.00;;;;;;;;;;5053518;28;20108;-84
2021/08/26 11:53:47;;;;;;;8.45;1.35;;;;;;;;;;5053426;28;20024;-84
2021/08/26 11:56:12;;;;;;;6.80;1.00;;;;;;;;;;5051261;28;20673;-84
2021/08/26 11:58:37;;;;;;;5.97;1.35;;;;;;;;;;5042737;28;20052;-84
2021/08/26 12:01:02;;;;;;;3.30;0.90;;;;;;;;;;5054454;28;20075;-84
2021/08/26 12:03:27;;;;;;;4.07;1.02;;;;;;;;;;5051956;28;20530;-83
2021/08/26 12:05:53;;;;;;;4.30;0.70;;;;;;;;;;5051392;28;20021;-84
2021/08/26 12:08:19;;;;;;;6.47;1.00;;;;;;;;;;5051553;28;20021;-85
2021/08/26 12:10:45;;;;;;;2.70;0.75;;;;;;;;;;5054064;28;21780;-84
2021/08/26 12:13:12;;;;;;;1.98;0.70;;;;;;;;;;5055220;28;20372;-84
2021/08/26 12:15:45;;;;;;;2.70;0.80;;;;;;;;;;5052863;28;20021;-84
2021/08/26 12:18:18;;;;;;;6.22;1.67;;;;;;;;;;5052673;28;20016;-84
2021/08/26 12:20:47;;;;;;;4.72;0.95;;;;;;;;;;5052289;28;20032;-84
2021/08/26 12:23:17;;;;;;;4.28;0.65;;;;;;;;;;5052422;28;20381;-84
2021/08/26 12:25:42;;;;;;;4.80;1.10;;;;;;;;;;5065925;28;20034;-84
2021/08/26 12:28:09;;;;;;;3.97;0.73;;;;;;;;;;5051672;28;20021;-84
2021/08/26 12:30:34;;;;;;;4.28;0.90;;;;;;;;;;5053666;28;20041;-84
2021/08/26 12:33:06;;;;;;;4.20;0.80;;;;;;;;;;5054470;28;20044;-83
2021/08/26 12:35:38;;;;;;;2.05;0.70;;;;;;;;;;5054524;28;20013;-84
2021/08/26 12:38:03;;;;;;;2.83;0.98;;;;;;;;;;5053043;28;20029;-86
2021/08/26 12:40:46;;;;;;;5.88;0.80;;;;;;;;;;5053990;28;20017;-85
2021/08/26 12:43:11;;;;;;;;;;;;;;;;;;5051661;28;20032;-85
2021/08/26 12:45:36;;;;;;;4.53;1.00;;;;;;;;;;5053701;28;19909;-85
2021/08/26 12:48:20;;;;;;;3.65;1.10;;;;;;;;;;5052178;28;20025;-84
2021/08/26 12:50:46;;;;;;;6.30;1.00;;;;;;;;;;5051628;28;20021;-85
2021/08/26 12:53:18;;;;;;;6.15;1.70;;;;;;;;;;5046904;28;20769;-84
2021/08/26 12:55:59;;;;;;;5.13;1.35;;;;;;;;;;5049666;28;20187;-84
2021/08/26 12:58:24;;;;;;;5.70;1.40;;;;;;;;;;5051677;28;20432;-83
2021/08/26 13:00:49;;;;;;;5.25;1.10;;;;;;;;;;5053399;28;20053;-84
2021/08/26 13:03:15;;;;;;;3.75;0.90;;;;;;;;;;5051931;28;20028;-84
2021/08/26 13:05:45;;;;;;;8.00;1.52;;;;;;;;;;5051131;28;20093;-84
2021/08/26 13:08:10;;;;;;;8.63;1.50;;;;;;;;;;5081568;28;20032;-84
2021/08/26 13:10:35;;;;;;;7.28;1.15;;;;;;;;;;5052612;28;20017;-84
2021/08/26 13:13:07;;;;;;;4.93;1.13;;;;;;;;;;5053370;28;20040;-83
2021/08/26 13:15:32;;;;;;;9.50;1.25;;;;;;;;;;5053922;28;20102;-84
2021/08/26 13:17:57;;;;;;;7.90;1.20;;;;;;;;;;5052861;28;20422;-84
2021/08/26 13:20:23;;;;;;;4.68;1.20;;;;;;;;;;5051518;28;20099;-84
2021/08/26 13:22:48;;;;;;;4.93;1.20;;;;;;;;;;5050816;28;20049;-84
2021/08/26 13:25:15;;;;;;;8.02;1.55;;;;;;;;;;5056306;28;20044;-84
2021/08/26 13:27:41;;;;;;;3.85;1.00;;;;;;;;;;5050268;28;20013;-84
2021/08/26 13:30:08;;;;;;;5.10;1.50;;;;;;;;;;5051937;28;20013;-83
2021/08/26 13:32:34;;;;;;;3.55;1.08;;;;;;;;;;5052006;28;20420;-84
2021/08/26 13:35:01;;;;;;;5.25;1.17;;;;;;;;;;5053833;28;20048;-84
2021/08/26 13:37:26;;;;;;;9.57;1.60;;;;;;;;;;5054343;28;20071;-84
2021/08/26 13:39:52;;;;;;;4.15;0.95;;;;;;;;;;5048228;28;20020;-84
2021/08/26 13:42:17;;;;;;;10.38;1.67;;;;;;;;;;5051134;28;20029;-84
2021/08/26 13:44:42;;;;;;;11.05;1.70;;;;;;;;;;5065045;28;20037;-84
2021/08/26 13:47:07;;;;;;;6.22;1.38;;;;;;;;;;5051356;28;20447;-84
2021/08/26 13:49:33;;;;;;;3.22;1.30;;;;;;;;;;5053104;28;20464;-84
2021/08/26 13:51:58;;;;;;;12.07;1.92;;;;;;;;;;5052310;28;20436;-84
2021/08/26 13:54:23;;;;;;;10.50;1.90;;;;;;;;;;5050560;28;20013;-84
2021/08/26 13:56:49;;;;;;;5.15;2.20;;;;;;;;;;5051385;28;20021;-84
2021/08/26 13:59:14;;;;;;;8.55;1.85;;;;;;;;;;5055129;28;20032;-84
2021/08/26 14:01:39;;;;;;;10.43;1.70;;;;;;;;;;5054702;28;20025;-84
2021/08/26 14:04:05;;;;;;;11.95;2.00;;;;;;;;;;5059931;28;20074;-84
2021/08/26 14:06:30;;;;;;;8.15;1.50;;;;;;;;;;5052609;28;20408;-84
2021/08/26 14:08:56;;;;;;;11.48;1.98;;;;;;;;;;5050792;28;20139;-84
2021/08/26 14:11:21;;;;;;;9.38;1.77;;;;;;;;;;5051660;28;20388;-84
2021/08/26 14:13:47;;;;;;;8.55;1.58;;;;;;;;;;5044722;28;20027;-84
2021/08/26 14:16:14;;;;;;;13.75;2.13;;;;;;;;;;5052716;28;20025;-84
2021/08/26 14:18:39;;;;;;;15.13;1.50;;;;;;;;;;5051558;28;20025;-83
2021/08/26 14:21:04;;;;;;;6.90;1.40;;;;;;;;;;5081190;28;20483;-83
2021/08/26 14:23:29;;;;;;;6.88;1.80;;;;;;;;;;5051559;28;20033;-84
2021/08/26 14:25:55;;;;;;;10.27;1.85;;;;;;;;;;5052000;28;20063;-84
2021/08/26 14:28:20;;;;;;;5.30;1.60;;;;;;;;;;5050696;28;20028;-84
2021/08/26 14:30:46;;;;;;;8.25;1.67;;;;;;;;;;5052340;28;20071;-84
2021/08/26 14:33:11;;;;;;;19.55;1.75;;;;;;;;;;5051127;28;20028;-83
2021/08/26 14:35:36;;;;;;;12.10;1.98;;;;;;;;;;5050784;28;20029;-84
2021/08/26 14:38:05;;;;;;;6.72;1.55;;;;;;;;;;5050255;28;20013;-84
2021/08/26 14:40:31;;;;;;;7.32;1.70;;;;;;;;;;5041301;28;20013;-85
2021/08/26 14:42:57;;;;;;;4.65;1.52;;;;;;;;;;5050951;28;20484;-84